< < Back
Terminal Aerodrome Forecast


Current Version              Previous Versions:   1  2  3  4  5  6  7  8  9  

Terminal Aerodrome Forecast

318
FTUS42 KGSP 301459 AAB
TAFCLT
TAF AMD
KCLT 301459Z 3015/0112 05006KT P6SM BKN008 OVC017
      TEMPO 3015/3016 BKN017
     FM301600 07004KT P6SM SCT025 BKN045
     FM301900 15005KT P6SM VCSH BKN050 PROB30 0100/0102 2SM -TSRA
      OVC025CB
     FM010200 16003KT P6SM BKN050
     FM010800 00000KT 5SM BR SCT040=



Latest METAR

822
SAUS70 KWBC 010400 RRR
MTRCLT
METAR KCLT 010352Z 24007KT 10SM FEW130 SCT250 24/21 A3002 RMK AO2 SLP158
LTG DSNT NW-N T02440211


USA.gov is the U.S. government's official web portal to all federal, state and local government web resources and services.